createdAt,value
2018-07-08T00:01:08.835Z,19.90
2018-07-08T00:03:37.029Z,19.90
2018-07-08T00:06:05.265Z,19.80
2018-07-08T00:08:33.485Z,19.80
2018-07-08T00:11:01.688Z,19.70
2018-07-08T00:13:29.865Z,19.90
2018-07-08T00:15:58.058Z,19.80
2018-07-08T00:18:26.257Z,19.90
2018-07-08T00:23:24.152Z,19.90
2018-07-08T00:25:52.429Z,19.90
2018-07-08T00:28:20.904Z,19.60
2018-07-08T00:30:49.183Z,19.50
2018-07-08T00:33:17.358Z,19.50
2018-07-08T00:38:13.613Z,19.50
2018-07-08T00:40:41.838Z,19.50
2018-07-08T00:43:10.169Z,19.40
2018-07-08T00:45:38.380Z,19.40
2018-07-08T00:48:06.558Z,19.40
2018-07-08T00:50:34.760Z,19.40
2018-07-08T01:10:20.974Z,19.40
2018-07-08T01:12:49.184Z,19.40
2018-07-08T01:15:17.391Z,19.30
2018-07-08T01:17:45.626Z,19.10
2018-07-08T01:20:13.817Z,19.10
2018-07-08T01:22:42.012Z,19.20
2018-07-08T01:25:13.260Z,19.10
2018-07-08T01:27:41.469Z,19.10
2018-07-08T01:30:10.876Z,19.10
2018-07-08T01:32:39.101Z,19.00
2018-07-08T01:35:07.412Z,19.00
2018-07-08T01:37:35.612Z,19.00
2018-07-08T01:40:04.174Z,19.00
2018-07-08T01:42:32.364Z,18.90
2018-07-08T01:47:28.926Z,18.90
2018-07-08T01:49:57.080Z,19.00
2018-07-08T01:54:54.662Z,18.90
2018-07-08T01:59:51.950Z,18.90
2018-07-08T02:02:20.495Z,18.90
2018-07-08T02:04:49.095Z,18.90
2018-07-08T02:07:17.509Z,18.80
2018-07-08T02:09:45.794Z,18.70
2018-07-08T02:12:14.284Z,18.60
2018-07-08T02:14:42.509Z,18.60
2018-07-08T02:17:11.237Z,18.60
2018-07-08T02:19:39.481Z,18.50
2018-07-08T02:22:07.718Z,18.60
2018-07-08T02:24:35.948Z,18.60
2018-07-08T02:27:04.391Z,18.60
2018-07-08T02:29:33.300Z,18.50
2018-07-08T02:32:01.511Z,18.40
2018-07-08T02:34:29.734Z,18.40
2018-07-08T02:36:57.942Z,18.30
2018-07-08T02:39:26.162Z,18.20
2018-07-08T02:41:54.366Z,18.30
2018-07-08T02:44:22.607Z,18.20
2018-07-08T02:46:50.840Z,18.20
2018-07-08T02:49:19.969Z,18.20
2018-07-08T02:51:48.214Z,18.10
2018-07-08T02:54:16.428Z,18.20
2018-07-08T02:56:44.645Z,18.00
2018-07-08T02:59:12.909Z,18.00
2018-07-08T03:01:41.135Z,18.00
2018-07-08T03:04:09.376Z,17.90
2018-07-08T03:06:37.575Z,18.00
2018-07-08T03:09:06.718Z,17.90
2018-07-08T03:14:02.955Z,17.70
2018-07-08T03:16:31.215Z,17.80
2018-07-08T03:18:59.536Z,17.70
2018-07-08T03:23:55.702Z,17.60
2018-07-08T03:26:23.890Z,17.70
2018-07-08T03:28:52.124Z,17.60
2018-07-08T03:31:20.353Z,17.70
2018-07-08T03:33:48.582Z,17.60
2018-07-08T03:36:16.823Z,17.60
2018-07-08T03:38:45.115Z,17.60
2018-07-08T03:41:13.332Z,17.40
2018-07-08T03:43:41.540Z,17.60
2018-07-08T03:46:09.777Z,17.50
2018-07-08T03:48:38.398Z,17.60
2018-07-08T03:53:34.759Z,17.70
2018-07-08T03:56:02.976Z,17.60
2018-07-08T03:58:31.210Z,17.50
2018-07-08T04:03:27.439Z,17.50
2018-07-08T04:05:55.683Z,17.50
2018-07-08T04:08:23.894Z,17.40
2018-07-08T04:10:52.415Z,17.40
2018-07-08T04:15:48.623Z,17.60
2018-07-08T04:18:16.848Z,17.30
2018-07-08T04:20:45.068Z,17.30
2018-07-08T04:23:13.294Z,17.20
2018-07-08T04:25:41.521Z,17.30
2018-07-08T04:28:09.724Z,17.30
2018-07-08T04:30:37.957Z,17.30
2018-07-08T04:33:06.237Z,17.40
2018-07-08T04:35:34.448Z,17.40
2018-07-08T04:38:02.649Z,17.50
2018-07-08T04:40:30.860Z,17.70
2018-07-08T04:45:27.043Z,17.70
2018-07-08T04:47:55.276Z,17.40
2018-07-08T04:50:23.464Z,17.40
2018-07-08T04:52:51.673Z,17.50
2018-07-08T04:55:19.916Z,17.50
2018-07-08T04:57:48.127Z,17.50
2018-07-08T05:00:16.320Z,17.50
2018-07-08T05:02:44.569Z,17.60
2018-07-08T05:05:12.761Z,17.50
2018-07-08T05:10:08.942Z,17.60
2018-07-08T05:12:37.170Z,17.50
2018-07-08T05:15:05.464Z,17.60
2018-07-08T05:17:33.656Z,17.60
2018-07-08T05:22:29.826Z,17.60
2018-07-08T05:24:58.019Z,17.80
2018-07-08T05:27:26.259Z,18.00
2018-07-08T05:32:22.456Z,17.90
2018-07-08T05:34:50.668Z,17.70
2018-07-08T05:37:18.923Z,17.80
2018-07-08T05:39:47.133Z,18.10
2018-07-08T05:42:15.351Z,18.30
2018-07-08T05:44:43.574Z,18.30
2018-07-08T05:47:11.824Z,18.30
2018-07-08T05:49:40.046Z,18.40
2018-07-08T05:52:08.545Z,18.70
2018-07-08T05:54:36.844Z,18.40
2018-07-08T06:02:01.005Z,18.30
2018-07-08T06:04:29.231Z,18.40
2018-07-08T06:06:57.496Z,18.40
2018-07-08T06:09:25.739Z,18.40
2018-07-08T06:11:53.962Z,18.60
2018-07-08T06:14:22.211Z,18.60
2018-07-08T06:16:50.529Z,18.70
2018-07-08T06:19:18.712Z,18.60
2018-07-08T06:21:46.915Z,18.60
2018-07-08T06:26:43.378Z,18.80
2018-07-08T06:29:11.579Z,18.80
2018-07-08T06:31:39.814Z,19.00
2018-07-08T06:34:08.050Z,19.10
2018-07-08T06:36:36.358Z,19.10
2018-07-08T06:39:05.245Z,19.20
2018-07-08T06:41:33.468Z,19.40
2018-07-08T06:44:02.088Z,19.50
2018-07-08T06:46:30.298Z,19.50
2018-07-08T06:48:58.529Z,19.60
2018-07-08T06:51:26.722Z,19.60
2018-07-08T06:53:54.937Z,19.70
2018-07-08T06:56:23.141Z,19.70
2018-07-08T06:58:51.354Z,19.80
2018-07-08T07:01:19.585Z,19.80
2018-07-08T07:03:47.836Z,20.00
2018-07-08T07:06:16.020Z,20.10
2018-07-08T07:08:44.216Z,20.10
2018-07-08T07:11:12.431Z,20.00
2018-07-08T07:16:08.615Z,20.30
2018-07-08T07:18:36.818Z,20.40
2018-07-08T07:21:05.129Z,20.40
2018-07-08T07:23:33.340Z,20.30
2018-07-08T07:26:01.543Z,20.30
2018-07-08T07:28:29.778Z,20.40
2018-07-08T07:30:57.943Z,20.50
2018-07-08T07:33:26.136Z,20.50
2018-07-08T07:40:50.270Z,20.60
2018-07-08T07:43:18.485Z,20.70
2018-07-08T07:45:46.690Z,20.80
2018-07-08T07:48:14.938Z,20.90
2018-07-08T07:50:43.143Z,20.80
2018-07-08T07:53:11.332Z,20.80
2018-07-08T07:55:39.551Z,20.80
2018-07-08T07:58:07.777Z,20.90
2018-07-08T08:00:35.983Z,21.00
2018-07-08T08:03:04.204Z,21.10
2018-07-08T08:05:32.545Z,20.90
2018-07-08T08:08:00.736Z,21.00
2018-07-08T08:10:28.946Z,21.00
2018-07-08T08:12:57.118Z,21.10
2018-07-08T08:15:25.312Z,21.00
2018-07-08T08:17:53.511Z,21.20
2018-07-08T08:20:21.720Z,21.30
2018-07-08T08:22:50.012Z,21.30
2018-07-08T08:25:18.205Z,21.40
2018-07-08T08:27:46.395Z,21.50
2018-07-08T08:30:14.584Z,21.40
2018-07-08T08:32:42.855Z,21.50
2018-07-08T08:35:12.793Z,21.60
2018-07-08T08:37:46.148Z,21.70
2018-07-08T08:40:15.162Z,21.60
2018-07-08T08:42:43.370Z,21.70
2018-07-08T08:45:12.877Z,21.60
2018-07-08T08:47:41.114Z,21.60
2018-07-08T08:50:09.927Z,21.80
2018-07-08T08:52:38.160Z,21.90
2018-07-08T08:55:07.389Z,21.90
2018-07-08T08:57:35.601Z,22.00
2018-07-08T09:00:05.242Z,22.10
2018-07-08T09:02:33.442Z,22.10
2018-07-08T09:05:01.703Z,22.20
2018-07-08T09:07:29.909Z,22.40
2018-07-08T09:09:58.115Z,22.60
2018-07-08T09:12:26.345Z,22.50
2018-07-08T09:14:54.555Z,22.60
2018-07-08T09:17:22.863Z,22.70
2018-07-08T09:19:50.979Z,22.70
2018-07-08T09:22:19.215Z,22.80
2018-07-08T09:24:47.442Z,22.90
2018-07-08T09:27:15.643Z,23.00
2018-07-08T09:29:43.860Z,23.00
2018-07-08T09:32:12.103Z,23.10
2018-07-08T09:34:40.331Z,23.30
2018-07-08T09:37:08.525Z,23.40
2018-07-08T09:39:36.722Z,23.30
2018-07-08T09:42:04.948Z,23.30
2018-07-08T09:44:33.155Z,23.60
2018-07-08T09:47:01.354Z,23.60
2018-07-08T09:49:29.546Z,23.50
2018-07-08T09:51:57.796Z,23.60
2018-07-08T09:54:26.020Z,23.80
2018-07-08T09:56:54.279Z,23.80
2018-07-08T09:59:22.496Z,23.90
2018-07-08T10:01:50.915Z,23.90
2018-07-08T10:04:25.704Z,23.90
2018-07-08T10:06:54.501Z,24.00
2018-07-08T10:09:23.818Z,24.20
2018-07-08T10:11:52.433Z,24.30
2018-07-08T10:14:21.824Z,24.00
2018-07-08T10:16:50.045Z,24.20
2018-07-08T10:19:24.916Z,24.40
2018-07-08T10:21:53.001Z,24.60
2018-07-08T10:27:00.691Z,24.50
2018-07-08T10:29:28.960Z,24.50
2018-07-08T10:31:57.204Z,24.90
2018-07-08T10:34:25.434Z,25.00
2018-07-08T10:36:53.650Z,24.70
2018-07-08T10:39:21.900Z,24.80
2018-07-08T10:41:50.133Z,25.00
2018-07-08T10:44:18.351Z,25.10
2018-07-08T10:46:46.586Z,24.70
2018-07-08T10:49:14.876Z,25.00
2018-07-08T10:51:43.092Z,25.10
2018-07-08T10:54:11.306Z,25.30
2018-07-08T10:56:39.531Z,25.50
2018-07-08T10:59:07.787Z,25.50
2018-07-08T11:01:36.038Z,25.30
2018-07-08T11:04:04.306Z,25.50
2018-07-08T11:06:32.556Z,25.50
2018-07-08T11:09:00.760Z,25.40
2018-07-08T11:11:29.011Z,25.60
2018-07-08T11:13:57.215Z,25.30
2018-07-08T11:16:25.438Z,25.50
2018-07-08T11:18:53.671Z,25.90
2018-07-08T11:21:21.924Z,26.00
2018-07-08T11:23:50.133Z,25.90
2018-07-08T11:26:18.335Z,26.10
2018-07-08T11:31:14.546Z,26.20
2018-07-08T11:33:42.797Z,26.10
2018-07-08T11:36:11.020Z,26.20
2018-07-08T11:38:39.318Z,26.10
2018-07-08T11:41:07.538Z,26.10
2018-07-08T11:43:35.736Z,26.50
2018-07-08T11:46:03.970Z,26.50
2018-07-08T11:51:00.167Z,26.90
2018-07-08T11:53:28.397Z,26.60
2018-07-08T11:55:56.626Z,26.80
2018-07-08T11:58:24.868Z,26.00
2018-07-08T12:00:53.116Z,26.30
2018-07-08T12:03:21.332Z,26.40
2018-07-08T12:05:49.578Z,26.70
2018-07-08T12:08:17.820Z,26.90
2018-07-08T12:10:46.040Z,26.70
2018-07-08T12:13:20.831Z,26.70
2018-07-08T12:15:49.043Z,26.50
2018-07-08T12:18:17.264Z,26.50
2018-07-08T12:20:45.512Z,26.50
2018-07-08T12:23:13.753Z,26.50
2018-07-08T12:25:41.994Z,26.60
2018-07-08T12:30:38.207Z,27.30
2018-07-08T12:33:06.755Z,26.90
2018-07-08T12:35:34.960Z,26.50
2018-07-08T12:38:03.168Z,26.70
2018-07-08T12:40:31.428Z,26.60
2018-07-08T12:42:59.740Z,27.10
2018-07-08T12:45:27.962Z,27.40
2018-07-08T12:47:56.183Z,27.00
2018-07-08T12:50:24.414Z,27.50
2018-07-08T12:52:52.634Z,27.60
2018-07-08T12:55:20.872Z,27.20
2018-07-08T12:57:49.076Z,27.50
2018-07-08T13:00:17.285Z,27.40
2018-07-08T13:02:45.543Z,27.40
2018-07-08T13:05:13.776Z,27.80
2018-07-08T13:07:42.848Z,27.80
2018-07-08T13:10:11.105Z,27.90
2018-07-08T13:12:39.361Z,27.50
2018-07-08T13:15:07.565Z,27.60
2018-07-08T13:17:35.820Z,27.70
2018-07-08T13:20:04.411Z,27.70
2018-07-08T13:25:00.552Z,27.60
2018-07-08T13:27:28.781Z,27.70
2018-07-08T13:29:57.045Z,27.70
2018-07-08T13:32:25.307Z,27.90
2018-07-08T13:37:21.405Z,28.00
2018-07-08T13:39:49.705Z,27.90
2018-07-08T13:47:14.646Z,28.30
2018-07-08T13:49:42.871Z,28.30
2018-07-08T13:52:11.118Z,28.60
2018-07-08T13:54:39.329Z,28.30
2018-07-08T13:57:07.563Z,28.40
2018-07-08T13:59:35.781Z,28.80
2018-07-08T14:02:04.013Z,28.50
2018-07-08T14:04:32.227Z,27.50
2018-07-08T14:07:00.459Z,27.90
2018-07-08T14:09:28.749Z,28.20
2018-07-08T14:11:56.994Z,28.20
2018-07-08T14:14:25.223Z,28.60
2018-07-08T14:16:53.448Z,28.80
2018-07-08T14:19:21.671Z,29.20
2018-07-08T14:21:49.918Z,28.90
2018-07-08T14:24:18.113Z,28.70
2018-07-08T14:26:46.433Z,28.10
2018-07-08T14:34:11.274Z,28.50
2018-07-08T14:36:39.534Z,28.60
2018-07-08T14:39:08.356Z,28.90
2018-07-08T14:41:36.685Z,29.10
2018-07-08T14:44:04.935Z,28.90
2018-07-08T14:46:33.403Z,29.40
2018-07-08T14:51:29.688Z,28.80
2018-07-08T14:53:57.910Z,28.90
2018-07-08T14:56:26.153Z,28.50
2018-07-08T14:58:54.363Z,28.40
2018-07-08T15:01:23.292Z,29.10
2018-07-08T15:03:51.899Z,29.50
2018-07-08T15:06:20.124Z,28.80
2018-07-08T15:08:48.354Z,29.20
2018-07-08T15:11:16.568Z,28.30
2018-07-08T15:13:44.832Z,28.60
2018-07-08T15:16:13.157Z,28.90
2018-07-08T15:18:41.271Z,28.30
2018-07-08T15:21:09.540Z,28.60
2018-07-08T15:23:37.755Z,29.10
2018-07-08T15:26:05.971Z,28.90
2018-07-08T15:28:34.219Z,28.80
2018-07-08T15:31:02.431Z,28.60
2018-07-08T15:33:30.690Z,29.30
2018-07-08T15:35:58.881Z,29.10
2018-07-08T15:38:27.101Z,28.50
2018-07-08T15:45:51.266Z,29.10
2018-07-08T15:48:19.528Z,28.30
2018-07-08T15:50:47.726Z,28.40
2018-07-08T15:53:15.967Z,28.40
2018-07-08T15:58:12.550Z,29.30
2018-07-08T16:00:40.764Z,29.00
2018-07-08T16:03:08.981Z,29.00
2018-07-08T16:08:05.233Z,28.90
2018-07-08T16:10:33.488Z,29.10
2018-07-08T16:13:01.704Z,29.00
2018-07-08T16:15:29.967Z,29.20
2018-07-08T16:17:58.228Z,29.00
2018-07-08T16:20:26.376Z,28.90
2018-07-08T16:22:54.604Z,28.40
2018-07-08T16:25:29.419Z,28.30
2018-07-08T16:27:57.680Z,28.40
2018-07-08T16:30:25.946Z,28.50
2018-07-08T16:32:54.283Z,28.80
2018-07-08T16:35:22.899Z,28.60
2018-07-08T16:37:51.136Z,28.90
2018-07-08T16:40:19.375Z,28.90
2018-07-08T16:42:47.577Z,29.00
2018-07-08T16:45:15.792Z,29.20
2018-07-08T16:47:44.176Z,29.30
2018-07-08T16:50:12.509Z,29.00
2018-07-08T16:52:40.747Z,29.00
2018-07-08T17:02:33.408Z,28.70
2018-07-08T17:05:01.523Z,28.30
2018-07-08T17:07:29.735Z,28.60
2018-07-08T17:09:57.965Z,28.30
2018-07-08T17:12:26.135Z,28.50
2018-07-08T17:14:54.334Z,28.50
2018-07-08T17:17:22.567Z,28.60
2018-07-08T17:19:50.803Z,28.70
2018-07-08T17:22:19.055Z,28.60
2018-07-08T17:24:47.258Z,28.50
2018-07-08T17:27:15.480Z,28.30
2018-07-08T17:29:43.691Z,28.30
2018-07-08T17:32:12.221Z,27.90
2018-07-08T17:37:08.350Z,27.90
2018-07-08T17:39:36.551Z,28.00
2018-07-08T17:42:04.812Z,27.90
2018-07-08T17:44:33.002Z,27.90
2018-07-08T17:47:01.233Z,28.00
2018-07-08T17:49:29.471Z,27.90
2018-07-08T17:51:57.714Z,27.60
2018-07-08T17:54:25.962Z,27.50
2018-07-08T17:56:54.198Z,27.50
2018-07-08T17:59:22.404Z,27.50
2018-07-08T18:04:18.611Z,27.30
2018-07-08T18:06:46.852Z,27.10
2018-07-08T18:09:15.073Z,27.20
2018-07-08T18:11:43.788Z,26.80
2018-07-08T18:14:12.167Z,26.60
2018-07-08T18:16:40.270Z,26.70
2018-07-08T18:19:08.545Z,26.50
2018-07-08T18:21:36.829Z,26.40
2018-07-08T18:26:33.044Z,26.20
2018-07-08T18:29:01.267Z,26.10
2018-07-08T18:31:29.579Z,26.10
2018-07-08T18:33:57.718Z,25.90
2018-07-08T18:38:53.957Z,25.90
2018-07-08T18:41:22.191Z,26.00
2018-07-08T18:43:50.410Z,25.80
2018-07-08T18:46:18.710Z,25.70
2018-07-08T18:48:46.853Z,25.70
2018-07-08T18:51:15.076Z,25.50
2018-07-08T18:56:11.300Z,25.40
2018-07-08T18:58:39.535Z,25.40
2018-07-08T19:01:07.759Z,25.20
2018-07-08T19:03:36.025Z,25.10
2018-07-08T19:06:04.306Z,25.10
2018-07-08T19:08:32.538Z,25.10
2018-07-08T19:11:00.801Z,25.00
2018-07-08T19:13:29.081Z,25.00
2018-07-08T19:15:57.295Z,24.90
2018-07-08T19:18:25.564Z,24.90
2018-07-08T19:20:53.791Z,24.60
2018-07-08T19:23:22.072Z,24.40
2018-07-08T19:25:50.319Z,24.20
2018-07-08T19:28:18.569Z,24.00
2018-07-08T19:30:46.808Z,23.90
2018-07-08T19:33:15.069Z,23.90
2018-07-08T19:35:43.336Z,23.80
2018-07-08T19:38:11.554Z,23.90
2018-07-08T19:40:39.781Z,23.80
2018-07-08T19:43:08.027Z,23.70
2018-07-08T19:45:36.520Z,23.60
2018-07-08T19:48:05.189Z,23.50
2018-07-08T19:50:33.396Z,23.50
2018-07-08T19:53:01.642Z,23.30
2018-07-08T19:55:29.875Z,23.10
2018-07-08T19:57:58.125Z,22.90
2018-07-08T20:00:26.364Z,22.70
2018-07-08T20:02:54.545Z,22.50
2018-07-08T20:05:22.816Z,22.50
2018-07-08T20:07:51.037Z,22.50
2018-07-08T20:10:19.210Z,22.40
2018-07-08T20:12:47.456Z,22.30
2018-07-08T20:15:15.669Z,22.40
2018-07-08T20:17:43.901Z,22.40
2018-07-08T20:20:12.175Z,22.20
2018-07-08T20:22:40.445Z,22.10
2018-07-08T20:25:09.333Z,22.00
2018-07-08T20:27:37.828Z,22.00
2018-07-08T20:30:06.057Z,21.90
2018-07-08T20:32:34.278Z,21.90
2018-07-08T20:35:02.489Z,21.90
2018-07-08T20:37:30.781Z,21.90
2018-07-08T20:39:58.972Z,21.90
2018-07-08T20:42:27.286Z,21.80
2018-07-08T20:44:55.528Z,21.80
2018-07-08T20:47:23.924Z,21.70
2018-07-08T20:49:52.218Z,21.70
2018-07-08T20:52:20.632Z,21.60
2018-07-08T20:54:49.283Z,21.50
2018-07-08T20:59:45.684Z,21.20
2018-07-08T21:02:13.894Z,21.10
2018-07-08T21:04:43.049Z,21.10
2018-07-08T21:07:11.236Z,21.10
2018-07-08T21:12:07.467Z,20.90
2018-07-08T21:14:35.679Z,20.90
2018-07-08T21:17:03.910Z,21.00
2018-07-08T21:19:32.113Z,20.80
2018-07-08T21:22:00.331Z,20.80
2018-07-08T21:24:28.552Z,20.80
2018-07-08T21:26:56.770Z,20.70
2018-07-08T21:29:25.294Z,20.80
2018-07-08T21:31:53.518Z,21.10
2018-07-08T21:34:21.753Z,21.00
2018-07-08T21:36:50.006Z,20.60
2018-07-08T21:39:18.178Z,20.40
2018-07-08T21:44:14.349Z,20.20
2018-07-08T21:46:42.561Z,20.10
2018-07-08T21:49:10.798Z,20.10
2018-07-08T21:51:39.010Z,20.10
2018-07-08T21:54:07.211Z,20.10
2018-07-08T21:56:35.471Z,20.10
2018-07-08T21:59:03.676Z,20.00
2018-07-08T22:01:47.285Z,19.90
2018-07-08T22:04:15.524Z,20.10
2018-07-08T22:06:43.722Z,20.00
2018-07-08T22:09:11.935Z,19.90
2018-07-08T22:11:40.456Z,19.90
2018-07-08T22:14:08.637Z,19.90
2018-07-08T22:16:36.840Z,19.80
2018-07-08T22:19:05.398Z,19.70
2018-07-08T22:21:33.641Z,19.60
2018-07-08T22:24:01.880Z,19.50
2018-07-08T22:26:30.081Z,19.30
2018-07-08T22:28:58.284Z,19.40
2018-07-08T22:31:26.524Z,19.50
2018-07-08T22:33:54.772Z,19.50
2018-07-08T22:36:23.014Z,19.40
2018-07-08T22:38:51.245Z,19.20
2018-07-08T22:41:19.507Z,19.30
2018-07-08T22:43:47.745Z,19.20
2018-07-08T22:46:15.948Z,19.10
2018-07-08T22:48:44.160Z,18.90
2018-07-08T22:51:12.358Z,18.80
2018-07-08T22:53:40.598Z,19.30
2018-07-08T22:56:08.798Z,19.20
2018-07-08T22:58:37.009Z,18.90
2018-07-08T23:02:16.447Z,18.70
2018-07-08T23:04:44.684Z,18.60
2018-07-08T23:07:12.903Z,19.00
2018-07-08T23:09:41.103Z,18.80
2018-07-08T23:12:09.288Z,18.70
2018-07-08T23:14:37.496Z,18.70
2018-07-08T23:17:05.766Z,18.60
2018-07-08T23:19:33.979Z,18.60
2018-07-08T23:22:02.217Z,18.70
2018-07-08T23:24:30.420Z,18.50
2018-07-08T23:26:58.633Z,18.30
2018-07-08T23:29:26.833Z,18.40
2018-07-08T23:31:54.998Z,18.40
2018-07-08T23:34:23.180Z,18.30
2018-07-08T23:36:51.370Z,18.30
2018-07-08T23:39:19.595Z,18.20
2018-07-08T23:41:47.796Z,18.30
2018-07-08T23:44:15.983Z,18.30
2018-07-08T23:46:44.187Z,18.30
2018-07-08T23:49:12.388Z,18.10
2018-07-08T23:54:08.544Z,18.10
2018-07-08T23:56:36.862Z,18.10
2018-07-08T23:59:05.068Z,18.00
